Scituate, Massachusetts
Current Conditions -  °F | °C
As of 11:15 AM on Thursday 18 Dec 2014 (Local Time) from KGHG Reporting Station
Scattered Clouds Scattered Clouds  
Wind Chill: 38°   Ceiling: Unl
Heat Index: 43°   Visibility: 10mi
Dew Point: 32°   Wind: 8mph
Humidity: 66%   Direction: 290°WNW
Pressure: 29.77"   Gusts: 21mph
Location:  42.2°N, 70.77°W
Report Text: KGHG 181615Z AUTO 29007G18KT 010V020 10SM SCT075 06/00 A2977 RMK AO2
Loading
Personal Weather Stations






























Interactive Weather Map New forecast layout! Learn more

10-Day Weather Forecast

Advertisements
Track Severe Weather on mobile